Decoded Metar for KAIZ (KAISER MEM in MO, USA) (IATA:AIZ) | Meteo·Mobile Aviation Weather
aviador You're here:

KAIZ Decoded Metar

KAISER MEM in MO, USA
Report Time2019-05-25 21:56:00
UTC Time2019-05-25 22:53:23
Flight Rules vfr VFR
Wind250° at 10 kt
W.Decomp.*RWY 22: 8.7 kt HW 5.0 kt RCW
Visibility9999 m
Phenomena:N/A
Clouds:N/A
Expected CloudBase > 4,000 ft AGL from Temp-Dew spread
CeilingNone
Temp31°C (ISA +18)
Dew Point21°C (55% RH)
Heat Index33.7°C
QNH1017 hPa
Density Alt3,091 ft
Elevation869 ft
Report Wrong Elevation
Raw Report
KAIZ 252156Z AUTO 25010KT 10SM CLR 31/21 A3002 RMK AO2 SLP155
T03060206=

Extra information for KAIZ:More info

Metar Taf Metar & Taf Last 4 Metars F.Rules Stats Wind Profile Meteogram Temp Stats Airport Information Weather charts Add Link Nearby VenuesMetar ALERT Operation Metar Decoded Social comments

AIRNAV info for KAIZ